Tropical Cyclones
[Index]
Main Index Home Page Stock Weather Photos Extreme Storms Discussion Storm News and Storm Chasing Reports Tropical Cyclones / Hurricanes / Typhoons Weather Data and Links Wild Fires / Bushfires Weather Observation Techniques Weather Picture Catalogue Tornado Pictures and Reports Stock Video Footage and DVDs for sale
Season 1973-1974 Tropical Cyclone BERYL Track Map
Season 1973-1974 Summaries: [BoM-AU] [JTWC-AU] [JTWC-SIO] [JTWC-SPAC] [JTWC-SH]
<<- Previous TC | JTWC 1973-1974 Season | Next TC ->>

click for intensity scale information  Lat/long Grid: Show Hide

 Date Labels: Show Hide

Joint Typhoon Warning Centre Cyclone Data

Name: BERYL
Number: 845 / 7407

26 Nov 1973 00:00 UTC to 04 Dec 1973 00:00 UTC

    date/time    lat    long     hPa   cat  kts
1973-11-26 00    9.9   116.2                              
1973-11-26 06    9.9   116.3                              
1973-11-26 12   10.0   116.4                              
1973-11-26 18   10.1   116.5                              
1973-11-27 00   10.2   116.7                              
1973-11-27 06   10.2   116.8                              
1973-11-27 12   10.3   117.0                              
1973-11-27 18   10.4   117.1                              
1973-11-28 00   10.4   117.2                              
1973-11-28 06   10.4   117.4                              
1973-11-28 12   10.3   117.6                              
1973-11-28 18   10.3   117.9                              
1973-11-29 00   10.2   118.2                              
1973-11-29 06   10.2   118.3                              
1973-11-29 12   10.3   118.4                              
1973-11-29 18   10.3   118.5                              
1973-11-30 00   10.5   118.5                              
1973-11-30 06   11.1   118.2                              
1973-11-30 12   11.8   117.7                              
1973-11-30 18   12.4   117.2                              
1973-12-01 00   13.0   116.6                              
1973-12-01 06   13.6   115.9                              
1973-12-01 12   14.3   115.2                              
1973-12-01 18   15.1   114.6                              
1973-12-02 00   16.0   114.1                              
1973-12-02 06   16.7   113.9                              
1973-12-02 12   17.5   113.8                              
1973-12-02 18   18.3   113.8                              
1973-12-03 00   19.2   113.7                              
1973-12-03 06   20.2   113.7                              
1973-12-03 12   21.3   113.6                              
1973-12-03 18   22.3   113.8                              
1973-12-04 00   23.2   114.2                              
Winds are 1-min average.

Tropical cyclone tracks developed by Michael Bath using data from the Joint Typhoon Warning Centre Best Tracks and Google Maps.


[Australian Severe Weather index] [Copyright Notice] [Email Contacts] [Search This Site] [Privacy Policy]
Document: tropical_cyclone_beryl.htm Updated: 18 September 2016